Time;durP1;ratioP1;P1;durP2;ratioP2;P2;SDS_P1;SDS_P2;PMS_P1;PMS_P2;Temp;Humidity;BMP_temperature;BMP_pressure;BME280_temperature;BME280_humidity;BME280_pressure;Samples;Min_cycle;Max_cycle;Signal;HPM_P1;HPM_P2
2022/03/27 00:01:58;;;;;;;;;;;;;;;20.90;41.40;102623.44;4975189;28;4101;-50
2022/03/27 00:04:25;;;;;;;;;;;;;;;20.92;41.46;102614.97;4976753;28;4276;-50
2022/03/27 00:06:51;;;;;;;;;;;;;;;20.93;41.47;102622.22;4972764;28;4291;-50
2022/03/27 00:09:17;;;;;;;;;;;;;;;20.96;41.46;102614.47;4974804;28;4110;-50
2022/03/27 00:11:44;;;;;;;;;;;;;;;20.97;41.44;102621.78;4972143;28;4259;-47
2022/03/27 00:14:10;;;;;;;;;;;;;;;20.97;41.47;102616.00;4974200;28;5138;-48
2022/03/27 00:16:36;;;;;;;;;;;;;;;20.97;41.46;102616.75;4975478;28;5513;-48
2022/03/27 00:19:03;;;;;;;;;;;;;;;20.97;41.44;102621.78;4975503;28;5468;-51
2022/03/27 00:21:29;;;;;;;;;;;;;;;20.97;41.48;102621.78;4974658;28;3983;-50
2022/03/27 00:23:56;;;;;;;;;;;;;;;20.97;41.38;102622.53;4975784;28;5733;-51
2022/03/27 00:26:22;;;;;;;;;;;;;;;20.96;41.45;102632.53;4973042;28;4190;-48
2022/03/27 00:28:49;;;;;;;;;;;;;;;20.96;41.23;102635.41;4977484;28;4117;-48
2022/03/27 00:31:15;;;;;;;;;;;;;;;20.95;41.39;102633.16;4968546;28;5532;-50
2022/03/27 00:33:41;;;;;;;;;;;;;;;20.95;41.29;102625.25;4974727;28;4333;-47
2022/03/27 00:36:10;;;;;;;;;;;;;;;20.97;41.28;102630.41;4973121;28;4198;-50
2022/03/27 00:38:36;;;;;;;;;;;;;;;20.95;41.20;102625.25;4979518;28;4247;-47
2022/03/27 00:41:03;;;;;;;;;;;;;;;20.95;41.28;102624.50;4980399;28;4121;-49
2022/03/27 00:43:29;;;;;;;;;;;;;;;20.95;41.36;102625.25;4979532;28;5546;-51
2022/03/27 00:45:56;;;;;;;;;;;;;;;20.95;41.32;102633.91;4980270;28;5495;-50
2022/03/27 00:48:22;;;;;;;;;;;;;;;20.95;41.36;102624.50;4983647;28;4278;-49
2022/03/27 00:50:49;;;;;;;;;;;;;;;20.93;41.37;102630.88;4981098;28;4233;-48
2022/03/27 00:53:15;;;;;;;;;;;;;;;20.92;41.39;102621.47;4980369;28;4205;-47
2022/03/27 00:55:42;;;;;;;;;;;;;;;20.93;41.32;102619.34;4980516;28;4258;-49
2022/03/27 00:58:08;;;;;;;;;;;;;;;20.92;41.40;102614.97;4980574;28;4322;-48
2022/03/27 01:00:37;;;;;;;;;;;;;;;20.91;41.35;102614.22;4979289;28;4131;-47
2022/03/27 01:03:27;;;;;;;;;;;;;;;20.91;41.45;102611.34;4979898;28;4924;-53
2022/03/27 01:05:54;;;;;;;;;;;;;;;20.91;41.44;102619.97;4971608;28;6562;-48
2022/03/27 01:09:35;;;;;;;;;;;;;;;20.91;41.39;102619.19;4980600;28;4190;-48
2022/03/27 01:11:10;;;;;;;;;;;;;;;20.89;41.40;102622.69;4979101;28;4160;-49
2022/03/27 01:13:36;;;;;;;;;;;;;;;20.86;41.51;102618.16;4981945;28;4063;-51
2022/03/27 01:16:02;;;;;;;;;;;;;;;20.87;41.47;102619.69;4980702;28;4258;-49
2022/03/27 01:18:29;;;;;;;;;;;;;;;20.86;41.36;102621.03;4980441;28;5240;-48
2022/03/27 01:20:56;;;;;;;;;;;;;;;20.85;41.45;102613.75;4978002;28;4358;-47
2022/03/27 01:23:23;;;;;;;;;;;;;;;20.84;41.30;102609.34;4978526;28;4080;-52
2022/03/27 01:25:49;;;;;;;;;;;;;;;20.83;41.47;102613.63;4982222;28;5485;-49
2022/03/27 01:28:15;;;;;;;;;;;;;;;20.84;41.36;102625.88;4981324;28;4193;-47
2022/03/27 01:30:42;;;;;;;;;;;;;;;20.81;41.46;102622.09;4978002;28;4300;-51
2022/03/27 01:33:13;;;;;;;;;;;;;;;20.82;41.39;102617.88;4969019;28;4077;-51
2022/03/27 01:35:39;;;;;;;;;;;;;;;20.83;41.38;102625.13;4985766;28;4232;-48
2022/03/27 01:38:05;;;;;;;;;;;;;;;20.83;41.23;102613.63;4981075;28;4021;-49
2022/03/27 01:40:32;;;;;;;;;;;;;;;20.84;41.29;102620.88;4976966;28;4085;-47
2022/03/27 01:42:58;;;;;;;;;;;;;;;20.82;41.25;102623.63;4978508;28;5346;-48
2022/03/27 01:45:24;;;;;;;;;;;;;;;20.81;41.22;102621.34;4980250;28;4200;-48
2022/03/27 01:47:51;;;;;;;;;;;;;;;20.84;41.14;102626.63;4979216;28;5285;-47
2022/03/27 01:50:17;;;;;;;;;;;;;;;20.87;41.17;102625.44;4980385;28;4585;-49
2022/03/27 01:52:44;;;;;;;;;;;;;;;20.89;41.23;102628.47;4976791;28;4283;-47
2022/03/27 01:55:16;;;;;;;;;;;;;;;20.89;41.25;102628.47;4976178;28;5118;-51
2022/03/27 01:57:43;;;;;;;;;;;;;;;20.86;41.27;102635.41;4973934;28;4024;-49
2022/03/27 02:00:10;;;;;;;;;;;;;;;20.89;41.16;102627.69;4975452;28;5340;-49
2022/03/27 02:02:45;;;;;;;;;;;;;;;20.86;41.31;102635.41;4976437;28;4250;-48
2022/03/27 02:05:11;;;;;;;;;;;;;;;20.87;41.26;102630.44;4976582;28;4255;-50
2022/03/27 02:07:38;;;;;;;;;;;;;;;20.88;41.14;102638.44;4978261;28;5465;-49
2022/03/27 02:10:05;;;;;;;;;;;;;;;20.86;41.30;102634.66;4971265;28;6846;-48
2022/03/27 02:12:34;;;;;;;;;;;;;;;20.86;41.23;102629.66;4975445;28;4219;-50
2022/03/27 02:15:01;;;;;;;;;;;;;;;20.87;41.22;102642.72;4977489;28;4241;-49
2022/03/27 02:17:27;;;;;;;;;;;;;;;20.86;41.15;102641.19;4978694;28;4506;-48
2022/03/27 02:19:54;;;;;;;;;;;;;;;20.87;41.11;102631.19;4977293;28;4031;-47
2022/03/27 02:22:20;;;;;;;;;;;;;;;20.86;41.04;102635.41;4978704;28;4171;-48
2022/03/27 02:24:47;;;;;;;;;;;;;;;20.87;41.12;102645.59;4974583;28;4328;-50
2022/03/27 02:27:13;;;;;;;;;;;;;;;20.86;41.22;102641.19;4974505;28;5218;-51
2022/03/27 02:29:39;;;;;;;;;;;;;;;20.85;41.01;102650.44;4976143;28;4318;-48
2022/03/27 02:32:08;;;;;;;;;;;;;;;20.82;41.10;102646.66;4975296;28;4172;-49
2022/03/27 02:34:34;;;;;;;;;;;;;;;20.80;41.19;102643.63;4977923;28;4146;-47
2022/03/27 02:37:00;;;;;;;;;;;;;;;20.83;41.13;102656.81;4978684;28;5478;-54
2022/03/27 02:39:27;;;;;;;;;;;;;;;20.85;41.24;102648.31;4974374;28;4028;-49
2022/03/27 02:41:53;;;;;;;;;;;;;;;20.89;41.25;102651.50;4976908;28;4945;-47
2022/03/27 02:44:22;;;;;;;;;;;;;;;20.92;41.11;102655.28;4979327;28;5072;-49
2022/03/27 02:46:50;;;;;;;;;;;;;;;20.94;41.32;102646.78;4974707;28;5280;-49
2022/03/27 02:49:16;;;;;;;;;;;;;;;20.93;41.16;102645.25;4976311;28;4171;-47
2022/03/27 02:51:45;;;;;;;;;;;;;;;20.95;41.14;102647.53;4976241;28;4432;-47
2022/03/27 02:54:12;;;;;;;;;;;;;;;20.97;41.29;102656.34;4972362;28;4175;-49
2022/03/27 02:56:38;;;;;;;;;;;;;;;20.97;41.15;102659.22;4976263;28;5345;-51
2022/03/27 02:59:04;;;;;;;;;;;;;;;20.96;41.40;102654.81;4975069;28;6312;-51
2022/03/27 03:01:31;;;;;;;;;;;;;;;20.97;41.15;102659.97;4974760;28;5519;-49
2022/03/27 03:03:58;;;;;;;;;;;;;;;20.98;41.43;102663.59;4974892;28;4359;-47
2022/03/27 03:06:24;;;;;;;;;;;;;;;20.98;41.32;102652.06;4976109;28;4145;-49
2022/03/27 03:08:51;;;;;;;;;;;;;;;20.98;41.35;102658.63;4975650;28;4107;-51
2022/03/27 03:11:20;;;;;;;;;;;;;;;20.99;41.27;102659.38;4974551;28;4244;-48
2022/03/27 03:13:47;;;;;;;;;;;;;;;20.99;41.24;102659.38;4979626;28;4224;-48
2022/03/27 03:16:14;;;;;;;;;;;;;;;21.01;41.39;102662.41;4975138;28;4216;-50
2022/03/27 03:18:40;;;;;;;;;;;;;;;20.99;41.17;102659.38;4977204;28;5445;-48
2022/03/27 03:21:07;;;;;;;;;;;;;;;20.98;41.20;102657.84;4974936;28;4194;-49
2022/03/27 03:23:33;;;;;;;;;;;;;;;20.99;41.27;102657.22;4973446;28;4270;-50
2022/03/27 03:26:00;;;;;;;;;;;;;;;20.99;41.28;102659.38;4976084;28;5171;-49
2022/03/27 03:28:33;;;;;;;;;;;;;;;20.98;41.16;102655.72;4976816;28;4063;-48
2022/03/27 03:30:59;;;;;;;;;;;;;;;21.01;41.43;102659.50;4973494;28;4326;-49
2022/03/27 03:33:26;;;;;;;;;;;;;;;20.99;41.33;102653.59;4975525;28;4394;-49
2022/03/27 03:35:52;;;;;;;;;;;;;;;21.01;41.23;102656.63;4974040;28;4552;-48
2022/03/27 03:38:18;;;;;;;;;;;;;;;21.01;41.22;102651.63;4975972;28;5383;-50
2022/03/27 03:40:45;;;;;;;;;;;;;;;20.99;41.27;102648.59;4976635;28;5546;-50
2022/03/27 03:43:11;;;;;;;;;;;;;;;21.00;41.39;102649.34;4976658;28;4171;-47
2022/03/27 03:45:38;;;;;;;;;;;;;;;21.00;41.41;102652.22;4975293;28;4602;-52
2022/03/27 03:48:04;;;;;;;;;;;;;;;21.00;41.42;102650.09;4972879;28;4520;-49
2022/03/27 03:50:33;;;;;;;;;;;;;;;21.00;41.31;102655.09;4974456;28;4245;-49
2022/03/27 03:52:59;;;;;;;;;;;;;;;21.02;41.40;102652.38;4974789;28;4511;-49
2022/03/27 03:55:26;;;;;;;;;;;;;;;21.02;41.45;102663.91;4971788;28;4208;-48
2022/03/27 03:57:52;;;;;;;;;;;;;;;21.02;41.51;102652.38;4973840;28;4267;-49
2022/03/27 04:00:19;;;;;;;;;;;;;;;21.03;41.41;102648.88;4974990;28;4190;-48
2022/03/27 04:02:45;;;;;;;;;;;;;;;21.03;41.23;102648.13;4978763;28;4398;-47
2022/03/27 04:05:12;;;;;;;;;;;;;;;21.03;41.23;102642.38;4972659;28;4214;-48
2022/03/27 04:07:38;;;;;;;;;;;;;;;21.03;41.34;102642.38;4973587;28;4248;-51
2022/03/27 04:10:04;;;;;;;;;;;;;;;21.04;41.28;102638.88;4976732;28;5240;-51
2022/03/27 04:12:31;;;;;;;;;;;;;;;21.01;41.40;102639.34;4974709;28;4334;-49
2022/03/27 04:14:57;;;;;;;;;;;;;;;21.01;41.46;102639.34;4975973;28;4241;-48
2022/03/27 04:17:23;;;;;;;;;;;;;;;21.01;41.64;102639.34;4973737;28;4340;-49
2022/03/27 04:19:50;;;;;;;;;;;;;;;21.03;41.34;102642.38;4974928;28;4213;-47
2022/03/27 04:22:16;;;;;;;;;;;;;;;21.04;41.42;102636.00;4976392;28;4266;-49
2022/03/27 04:24:43;;;;;;;;;;;;;;;21.04;41.31;102638.13;4976126;28;4185;-48
2022/03/27 04:27:09;;;;;;;;;;;;;;;21.03;41.50;102637.38;4972066;28;5426;-47
2022/03/27 04:29:35;;;;;;;;;;;;;;;21.04;41.48;102633.09;4974915;28;4071;-47
2022/03/27 04:32:02;;;;;;;;;;;;;;;21.04;41.56;102635.25;4973015;28;5406;-50
2022/03/27 04:34:28;;;;;;;;;;;;;;;21.05;41.44;102637.53;4975504;28;4253;-48
2022/03/27 04:36:54;;;;;;;;;;;;;;;21.05;41.42;102639.63;4975487;28;4378;-51
2022/03/27 04:39:22;;;;;;;;;;;;;;;21.03;41.44;102642.38;4972745;28;4283;-48
2022/03/27 04:41:49;;;;;;;;;;;;;;;21.04;41.35;102638.88;4973558;28;4197;-49
2022/03/27 04:44:15;;;;;;;;;;;;;;;21.04;41.45;102644.63;4975969;28;4117;-48
2022/03/27 04:46:41;;;;;;;;;;;;;;;21.06;41.56;102641.16;4974135;28;5291;-50
2022/03/27 04:49:08;;;;;;;;;;;;;;;21.07;41.49;102643.44;4976818;28;4155;-48
2022/03/27 04:51:34;;;;;;;;;;;;;;;21.07;41.46;102642.66;4973139;28;4223;-48
2022/03/27 04:54:00;;;;;;;;;;;;;;;21.05;41.46;102645.38;4972244;28;4424;-47
2022/03/27 04:56:27;;;;;;;;;;;;;;;21.05;41.47;102640.41;4976306;28;4248;-49
2022/03/27 04:58:53;;;;;;;;;;;;;;;21.08;41.50;102638.41;4974207;28;4495;-51
2022/03/27 05:01:19;;;;;;;;;;;;;;;21.07;41.44;102631.13;4972470;28;6474;-52
2022/03/27 05:03:46;;;;;;;;;;;;;;;21.06;41.37;102633.25;4974999;28;4358;-49
2022/03/27 05:06:12;;;;;;;;;;;;;;;21.08;41.47;102629.78;4974160;28;4303;-50
2022/03/27 05:08:39;;;;;;;;;;;;;;;21.06;41.41;102629.63;4972352;28;4224;-47
2022/03/27 05:11:06;;;;;;;;;;;;;;;21.06;41.35;102629.63;4974548;28;4256;-48
2022/03/27 05:13:32;;;;;;;;;;;;;;;21.07;41.40;102636.88;4974115;28;4489;-52
2022/03/27 05:15:59;;;;;;;;;;;;;;;21.06;41.39;102635.38;4975906;28;5707;-48
2022/03/27 05:18:25;;;;;;;;;;;;;;;21.06;41.35;102632.50;4975002;28;4255;-48
2022/03/27 05:20:51;;;;;;;;;;;;;;;21.07;41.32;102634.78;4975344;28;4642;-48
2022/03/27 05:23:18;;;;;;;;;;;;;;;21.08;41.38;102626.91;4973140;28;4242;-50
2022/03/27 05:25:49;;;;;;;;;;;;;;;21.08;41.37;102632.66;4976886;28;5408;-50
2022/03/27 05:28:15;;;;;;;;;;;;;;;21.08;41.38;102644.19;4980904;28;4206;-47
2022/03/27 05:30:43;;;;;;;;;;;;;;;21.08;41.29;102642.06;4979454;28;4577;-48
2022/03/27 05:33:09;;;;;;;;;;;;;;;21.08;41.24;102638.41;4974940;28;4206;-48
2022/03/27 05:35:36;;;;;;;;;;;;;;;21.07;41.20;102642.66;4972283;28;4255;-50
2022/03/27 05:38:02;;;;;;;;;;;;;;;21.08;41.47;102655.69;4975431;28;4184;-49
2022/03/27 05:40:29;;;;;;;;;;;;;;;21.07;41.35;102654.16;4973823;28;4176;-48
2022/03/27 05:42:55;;;;;;;;;;;;;;;21.05;41.13;102657.69;4972463;28;5330;-48
2022/03/27 05:45:23;;;;;;;;;;;;;;;21.07;41.25;102654.16;4978874;28;4164;-47
2022/03/27 05:47:50;;;;;;;;;;;;;;;21.05;41.42;102656.91;4975881;28;4220;-50
2022/03/27 05:50:18;;;;;;;;;;;;;;;21.01;41.51;102663.16;4971765;28;4493;-49
2022/03/27 05:52:44;;;;;;;;;;;;;;;21.07;41.67;102659.94;4964744;28;4242;-47
2022/03/27 05:55:12;;;;;;;;;;;;;;;21.07;41.83;102669.34;4977814;28;5251;-47
2022/03/27 05:57:38;;;;;;;;;;;;;;;21.08;41.71;102661.47;4979681;28;5244;-48
2022/03/27 06:00:06;;;;;;;;;;;;;;;21.10;41.68;102676.00;4981572;28;5431;-49
2022/03/27 06:02:34;;;;;;;;;;;;;;;21.10;41.76;102670.25;4982239;28;4162;-49
2022/03/27 06:05:00;;;;;;;;;;;;;;;21.07;42.17;102680.09;4977178;28;4181;-48
2022/03/27 06:07:27;;;;;;;;;;;;;;;21.08;42.00;102684.50;4979839;28;4135;-47
2022/03/27 06:09:54;;;;;;;;;;;;;;;21.10;42.07;102687.53;4977242;28;4568;-48
2022/03/27 06:12:20;;;;;;;;;;;;;;;21.08;42.17;102684.50;4978215;28;4015;-48
2022/03/27 06:14:48;;;;;;;;;;;;;;;21.11;42.44;102684.03;4979589;28;5381;-47
2022/03/27 06:17:14;;;;;;;;;;;;;;;21.17;41.89;102695.25;4964697;28;4183;-48
2022/03/27 06:19:41;;;;;;;;;;;;;;;21.14;42.13;102707.97;4961463;28;4061;-47
2022/03/27 06:22:08;;;;;;;;;;;;;;;21.16;42.24;102704.50;4972131;28;4184;-47
2022/03/27 06:24:34;;;;;;;;;;;;;;;20.28;38.76;102710.25;4978781;28;4197;-50
2022/03/27 06:27:01;;;;;;;;;;;;;;;17.99;39.51;102710.56;4959629;28;5839;-51
2022/03/27 06:29:27;;;;;;;;;;;;;;;17.02;40.39;102712.16;4979253;28;4048;-48
2022/03/27 06:31:53;;;;;;;;;;;;;;;16.81;39.87;102712.41;4976673;28;4264;-49
2022/03/27 06:34:21;;;;;;;;;;;;;;;16.65;39.90;102711.69;4978786;28;4149;-50
2022/03/27 06:36:47;;;;;;;;;;;;;;;17.07;39.98;102707.53;4976671;28;4085;-49
2022/03/27 06:39:15;;;;;;;;;;;;;;;18.37;39.09;102709.47;4973143;28;4158;-50
2022/03/27 06:41:41;;;;;;;;;;;;;;;18.99;38.91;102714.53;4973138;28;4156;-49
2022/03/27 06:44:08;;;;;;;;;;;;;;;19.39;38.68;102710.53;4975511;28;4230;-53
2022/03/27 06:46:34;;;;;;;;;;;;;;;19.81;38.56;102710.31;4969169;28;4187;-56
2022/03/27 06:49:00;;;;;;;;;;;;;;;19.66;38.15;102711.28;4974422;28;5249;-53
2022/03/27 06:51:27;;;;;;;;;;;;;;;19.55;39.39;102708.94;4967024;28;4401;-50
2022/03/27 06:53:53;;;;;;;;;;;;;;;19.81;39.26;102709.53;4976073;28;4262;-51
2022/03/27 06:56:19;;;;;;;;;;;;;;;19.99;39.18;102707.31;4976872;28;4431;-55
2022/03/27 06:58:46;;;;;;;;;;;;;;;20.07;39.31;102719.47;4979329;28;4242;-53
2022/03/27 07:03:57;;;;;;;;;;;;;;;20.22;39.64;102712.66;4975896;28;4219;-50
2022/03/27 07:06:24;;;;;;;;;;;;;;;20.28;39.75;102716.03;4974141;28;4177;-50
2022/03/27 07:08:50;;;;;;;;;;;;;;;20.32;39.88;102722.09;4978063;28;5267;-51
2022/03/27 07:11:16;;;;;;;;;;;;;;;20.34;39.96;102716.50;4974686;28;4105;-51
2022/03/27 07:13:43;;;;;;;;;;;;;;;20.42;40.08;102719.22;4978673;28;5495;-50
2022/03/27 07:16:09;;;;;;;;;;;;;;;20.44;40.25;102720.13;4975241;28;5621;-51
2022/03/27 07:18:36;;;;;;;;;;;;;;;20.47;40.33;102713.16;4975892;28;4106;-53
2022/03/27 07:21:05;;;;;;;;;;;;;;;20.48;40.56;102717.56;4975736;28;4519;-54
2022/03/27 07:23:31;;;;;;;;;;;;;;;20.52;40.65;102714.22;4976995;28;4545;-52
2022/03/27 07:25:58;;;;;;;;;;;;;;;20.58;40.72;102708.19;4974894;28;5261;-53
2022/03/27 07:28:25;;;;;;;;;;;;;;;20.57;40.81;102715.31;4976805;28;5342;-51
2022/03/27 07:30:51;;;;;;;;;;;;;;;20.62;40.92;102711.38;4975859;28;4244;-55
2022/03/27 07:33:17;;;;;;;;;;;;;;;20.63;40.95;102707.88;4978068;28;4237;-52
2022/03/27 07:35:44;;;;;;;;;;;;;;;20.67;41.03;102704.56;4973767;28;4235;-49
2022/03/27 07:38:10;;;;;;;;;;;;;;;20.67;41.05;102704.56;4973842;28;5118;-54
2022/03/27 07:40:37;;;;;;;;;;;;;;;20.73;41.10;102707.13;4974568;28;4089;-52
2022/03/27 07:43:03;;;;;;;;;;;;;;;20.74;41.18;102705.78;4972227;28;4204;-55
2022/03/27 07:45:30;;;;;;;;;;;;;;;20.77;41.28;102705.31;4977933;28;6352;-52
2022/03/27 07:47:56;;;;;;;;;;;;;;;20.77;41.32;102708.19;4975995;28;4128;-53
2022/03/27 07:50:23;;;;;;;;;;;;;;;20.77;41.52;102702.44;4975630;28;4256;-58
2022/03/27 07:52:50;;;;;;;;;;;;;;;20.61;41.53;102712.72;4974320;28;4269;-57
2022/03/27 07:55:16;;;;;;;;;;;;;;;20.12;40.67;102711.91;4975411;28;5452;-54
2022/03/27 07:57:43;;;;;;;;;;;;;;;19.87;40.99;102718.63;4973015;28;5328;-54
2022/03/27 08:00:10;;;;;;;;;;;;;;;19.60;41.40;102713.66;4975325;28;4348;-54
2022/03/27 08:02:39;;;;;;;;;;;;;;;19.05;42.31;102723.63;4976928;28;4575;-54
2022/03/27 08:05:06;;;;;;;;;;;;;;;19.03;42.25;102729.97;4972410;28;4168;-52
2022/03/27 08:07:33;;;;;;;;;;;;;;;19.11;42.00;102724.13;4973551;28;5357;-52
2022/03/27 08:09:59;;;;;;;;;;;;;;;19.18;41.88;102719.63;4975473;28;4182;-53
2022/03/27 08:12:26;;;;;;;;;;;;;;;19.44;41.58;102724.63;4967119;28;4367;-55
2022/03/27 08:14:52;;;;;;;;;;;;;;;19.76;41.17;102717.06;4970908;28;4177;-55
2022/03/27 08:17:19;;;;;;;;;;;;;;;19.98;41.21;102718.06;4972487;28;4230;-52
2022/03/27 08:19:47;;;;;;;;;;;;;;;20.17;41.11;102707.97;4975378;28;4238;-53
2022/03/27 08:22:13;;;;;;;;;;;;;;;20.28;41.26;102704.50;4973602;28;4082;-53
2022/03/27 08:24:40;;;;;;;;;;;;;;;20.40;41.13;102699.66;4971089;28;4705;-55
2022/03/27 08:27:08;;;;;;;;;;;;;;;20.44;41.38;102691.34;4972019;28;4311;-53
2022/03/27 08:29:35;;;;;;;;;;;;;;;20.44;41.66;102688.47;4975688;28;6362;-55
2022/03/27 08:32:02;;;;;;;;;;;;;;;20.50;41.65;102696.78;4973180;28;4208;-53
2022/03/27 08:34:29;;;;;;;;;;;;;;;20.53;41.89;102686.97;4976776;28;4108;-55
2022/03/27 08:36:56;;;;;;;;;;;;;;;20.57;41.97;102693.06;4972924;28;4708;-53
2022/03/27 08:39:22;;;;;;;;;;;;;;;20.59;42.10;102692.44;4972839;28;4186;-51
2022/03/27 08:41:49;;;;;;;;;;;;;;;20.60;42.18;102688.22;4972982;28;4274;-54
2022/03/27 08:44:18;;;;;;;;;;;;;;;20.62;42.26;102673.97;4970094;28;4173;-53
2022/03/27 08:46:45;;;;;;;;;;;;;;;20.64;42.46;102692.16;4971718;28;5010;-52
2022/03/27 08:49:24;;;;;;;;;;;;;;;20.67;42.42;102681.53;4972941;28;4170;-55
2022/03/27 08:51:56;;;;;;;;;;;;;;;20.68;42.56;102683.03;4970366;28;4377;-54
2022/03/27 08:54:24;;;;;;;;;;;;;;;20.72;42.52;102680.47;4970651;28;4221;-55
2022/03/27 08:56:54;;;;;;;;;;;;;;;20.74;42.62;102680.63;4972230;28;4117;-54
2022/03/27 08:59:20;;;;;;;;;;;;;;;20.78;42.67;102685.94;4976969;28;4134;-54
2022/03/27 09:01:46;;;;;;;;;;;;;;;20.74;42.76;102686.38;4973554;28;5349;-60
2022/03/27 09:04:14;;;;;;;;;;;;;;;20.47;41.54;102684.38;4971206;28;4524;-62
2022/03/27 09:06:40;;;;;;;;;;;;;;;20.12;41.34;102681.00;4973449;28;5326;-59
2022/03/27 09:09:06;;;;;;;;;;;;;;;20.10;40.83;102689.50;4974845;28;4192;-59
2022/03/27 09:11:33;;;;;;;;;;;;;;;20.08;40.43;102680.69;4974205;28;4176;-53
2022/03/27 09:13:59;;;;;;;;;;;;;;;20.27;40.69;102680.75;4973736;28;4252;-49
2022/03/27 09:16:25;;;;;;;;;;;;;;;20.40;41.36;102690.28;4975332;28;4163;-51
2022/03/27 09:18:53;;;;;;;;;;;;;;;20.53;41.21;102683.34;4980773;28;4547;-53
2022/03/27 09:21:20;;;;;;;;;;;;;;;20.63;40.99;102684.09;4981815;28;5676;-54
2022/03/27 09:23:56;;;;;;;;;;;;;;;20.68;41.06;102680.16;4979575;28;4265;-50
2022/03/27 09:26:22;;;;;;;;;;;;;;;20.73;41.02;102684.88;4976121;28;4384;-49
2022/03/27 09:28:55;;;;;;;;;;;;;;;20.74;41.20;102674.84;4980208;28;4193;-51
2022/03/27 09:31:22;;;;;;;;;;;;;;;20.73;41.13;102667.59;4975508;28;4167;-50
2022/03/27 09:34:00;;;;;;;;;;;;;;;20.76;41.34;102671.38;4980150;28;4471;-53
2022/03/27 09:36:26;;;;;;;;;;;;;;;20.78;41.33;102668.66;4979914;28;5222;-53
2022/03/27 09:39:01;;;;;;;;;;;;;;;20.78;41.47;102678.03;4978779;28;4137;-52
2022/03/27 09:41:32;;;;;;;;;;;;;;;20.80;41.52;102678.19;4977746;28;3976;-53
2022/03/27 09:44:00;;;;;;;;;;;;;;;20.80;41.62;102672.44;4979852;28;5595;-53
2022/03/27 09:46:26;;;;;;;;;;;;;;;20.79;41.77;102659.38;4979266;28;4063;-54
2022/03/27 09:48:56;;;;;;;;;;;;;;;20.77;41.79;102670.00;4981232;28;3996;-53
2022/03/27 09:51:22;;;;;;;;;;;;;;;20.80;41.95;102665.91;4976628;28;4323;-51
2022/03/27 09:53:55;;;;;;;;;;;;;;;20.81;41.83;102665.28;4976111;28;4079;-51
2022/03/27 09:56:22;;;;;;;;;;;;;;;20.82;41.70;102666.81;4980066;28;5480;-54
2022/03/27 09:58:49;;;;;;;;;;;;;;;20.84;41.84;102663.31;4977736;28;4142;-53
2022/03/27 10:01:16;;;;;;;;;;;;;;;20.84;41.84;102660.44;4975599;28;4240;-55
2022/03/27 10:03:57;;;;;;;;;;;;;;;20.86;41.88;102658.47;4976070;28;4018;-53
2022/03/27 10:06:27;;;;;;;;;;;;;;;20.82;42.00;102660.28;4976565;28;4296;-52
2022/03/27 10:08:53;;;;;;;;;;;;;;;20.84;41.93;102654.69;4978002;28;4083;-53
2022/03/27 10:11:23;;;;;;;;;;;;;;;20.87;41.91;102651.34;4976185;28;4258;-52
2022/03/27 10:13:53;;;;;;;;;;;;;;;20.89;41.96;102637.09;4979407;28;4234;-51
2022/03/27 10:16:23;;;;;;;;;;;;;;;20.85;41.97;102639.69;4978765;28;4219;-52
2022/03/27 10:18:51;;;;;;;;;;;;;;;20.88;42.00;102629.81;4977813;28;4246;-53
2022/03/27 10:21:17;;;;;;;;;;;;;;;20.87;42.01;102631.19;4974941;28;4091;-55
2022/03/27 10:23:43;;;;;;;;;;;;;;;20.88;42.11;102626.19;4976914;28;3984;-53
2022/03/27 10:26:10;;;;;;;;;;;;;;;20.91;41.98;102628.63;4977408;28;6273;-54
2022/03/27 10:28:37;;;;;;;;;;;;;;;20.91;42.11;102624.94;4979720;28;4002;-54
2022/03/27 10:31:04;;;;;;;;;;;;;;;20.90;42.14;102618.44;4977464;28;4517;-51
2022/03/27 10:33:30;;;;;;;;;;;;;;;20.92;42.11;102614.97;4974711;28;4288;-56
2022/03/27 10:36:17;;;;;;;;;;;;;;;20.91;42.30;102614.22;4977411;28;4174;-53
2022/03/27 10:38:52;;;;;;;;;;;;;;;20.91;42.61;102608.44;4969717;28;4209;-53
2022/03/27 10:41:29;;;;;;;;;;;;;;;20.92;42.34;102612.84;4975047;28;5142;-51
2022/03/27 10:44:04;;;;;;;;;;;;;;;20.91;42.60;102619.19;4975444;28;4191;-51
2022/03/27 10:46:37;;;;;;;;;;;;;;;20.93;42.67;102617.22;4975422;28;4070;-54
2022/03/27 10:49:12;;;;;;;;;;;;;;;20.91;42.95;102614.22;4976106;28;4232;-52
2022/03/27 10:51:39;;;;;;;;;;;;;;;20.96;43.02;102618.16;4980179;28;4319;-55
2022/03/27 10:54:06;;;;;;;;;;;;;;;20.96;43.12;102609.50;4975702;28;4542;-53
2022/03/27 10:56:34;;;;;;;;;;;;;;;20.97;43.24;102611.00;4978733;28;5195;-55
2022/03/27 10:59:07;;;;;;;;;;;;;;;20.98;43.24;102612.53;4972239;28;3959;-52
2022/03/27 11:01:38;;;;;;;;;;;;;;;20.99;43.28;102613.28;4978832;28;4097;-51
2022/03/27 11:04:07;;;;;;;;;;;;;;;20.99;43.58;102596.00;4977590;28;4284;-54
2022/03/27 11:06:38;;;;;;;;;;;;;;;20.98;43.62;102594.47;4977355;28;4447;-53
2022/03/27 11:09:05;;;;;;;;;;;;;;;20.96;43.65;102600.09;4978423;28;4230;-54
2022/03/27 11:11:48;;;;;;;;;;;;;;;20.99;43.77;102596.00;4977925;28;4490;-51
2022/03/27 11:14:21;;;;;;;;;;;;;;;21.00;43.73;102580.97;4975410;28;4259;-52
2022/03/27 11:17:05;;;;;;;;;;;;;;;20.99;43.97;102587.34;4976241;28;4204;-49
2022/03/27 11:19:44;;;;;;;;;;;;;;;21.02;43.84;102574.59;4979139;28;4333;-52
2022/03/27 11:22:30;;;;;;;;;;;;;;;21.00;43.86;102568.69;4976750;28;4149;-52
2022/03/27 11:25:15;;;;;;;;;;;;;;;20.99;44.00;102567.19;4974734;28;4188;-53
2022/03/27 11:27:52;;;;;;;;;;;;;;;21.01;43.98;102561.59;4978545;28;4162;-51
2022/03/27 11:30:18;;;;;;;;;;;;;;;21.02;44.04;102560.19;4975607;28;6512;-55
2022/03/27 11:33:03;;;;;;;;;;;;;;;21.02;43.97;102557.31;4973563;28;3982;-53
2022/03/27 11:35:30;;;;;;;;;;;;;;;21.02;43.99;102548.69;4978203;28;4142;-54
2022/03/27 11:38:15;;;;;;;;;;;;;;;21.05;44.02;102553.97;4975702;28;5010;-53
2022/03/27 11:40:41;;;;;;;;;;;;;;;21.06;44.05;102548.97;4977089;28;5425;-54
2022/03/27 11:43:26;;;;;;;;;;;;;;;21.07;43.94;102550.47;4976033;28;3997;-54
2022/03/27 11:45:52;;;;;;;;;;;;;;;21.08;43.95;102546.25;4978841;28;4236;-50
2022/03/27 11:48:19;;;;;;;;;;;;;;;21.09;43.83;102544.84;4976049;28;4141;-53
2022/03/27 11:50:45;;;;;;;;;;;;;;;21.08;44.03;102546.25;4975708;28;5501;-50
2022/03/27 11:53:12;;;;;;;;;;;;;;;21.08;43.91;102534.72;4972944;28;4149;-51
2022/03/27 11:55:39;;;;;;;;;;;;;;;21.07;43.97;102545.50;4977470;28;4195;-51
2022/03/27 11:58:07;;;;;;;;;;;;;;;21.09;43.93;102536.22;4978537;28;4221;-54
2022/03/27 12:00:34;;;;;;;;;;;;;;;21.11;43.91;102533.47;4978529;28;4906;-54
2022/03/27 12:03:01;;;;;;;;;;;;;;;21.10;44.03;102526.22;4976153;28;5341;-53
2022/03/27 12:05:32;;;;;;;;;;;;;;;21.13;43.94;102530.75;4974895;28;4230;-50
2022/03/27 12:07:59;;;;;;;;;;;;;;;21.09;44.06;102519.69;4975033;28;4174;-53
2022/03/27 12:10:26;;;;;;;;;;;;;;;21.10;43.99;102529.09;4974245;28;4138;-52
2022/03/27 12:12:58;;;;;;;;;;;;;;;21.13;44.10;102519.22;4973803;28;4556;-55
2022/03/27 12:15:54;;;;;;;;;;;;;;;21.14;43.99;102526.47;4975629;28;4245;-52
2022/03/27 12:18:27;;;;;;;;;;;;;;;21.11;44.01;102522.72;4959310;28;4173;-53
2022/03/27 12:20:53;;;;;;;;;;;;;;;21.15;43.96;102512.84;4976126;28;4564;-54
2022/03/27 12:23:21;;;;;;;;;;;;;;;21.15;44.10;102512.84;4975525;28;4598;-54
2022/03/27 12:25:57;;;;;;;;;;;;;;;21.14;44.01;102503.44;4977528;28;4182;-52
2022/03/27 12:31:18;;;;;;;;;;;;;;;21.17;43.97;102502.22;4976439;28;5429;-53
2022/03/27 12:33:44;;;;;;;;;;;;;;;21.18;43.84;102497.22;4975978;28;4080;-54
2022/03/27 12:36:11;;;;;;;;;;;;;;;21.19;43.98;102496.59;4976503;28;4072;-51
2022/03/27 12:38:38;;;;;;;;;;;;;;;21.21;43.83;102490.97;4975506;28;4228;-54
2022/03/27 12:41:04;;;;;;;;;;;;;;;21.20;43.90;102489.47;4977324;28;4095;-53
2022/03/27 12:43:30;;;;;;;;;;;;;;;21.21;43.87;102488.09;4973918;28;4065;-55
2022/03/27 12:45:57;;;;;;;;;;;;;;;21.21;43.89;102482.34;4974524;28;4339;-54
2022/03/27 12:48:27;;;;;;;;;;;;;;;21.21;43.93;102479.47;4977963;28;4128;-52
2022/03/27 12:50:54;;;;;;;;;;;;;;;21.22;43.97;102480.97;4974630;28;4082;-53
2022/03/27 12:53:20;;;;;;;;;;;;;;;21.22;43.82;102478.06;4973812;28;4542;-54
2022/03/27 12:55:48;;;;;;;;;;;;;;;21.21;43.96;102467.94;4973929;28;5310;-54
2022/03/27 12:58:18;;;;;;;;;;;;;;;21.24;43.87;102471.72;4972300;28;5326;-52